Time;durP1;ratioP1;P1;durP2;ratioP2;P2;SDS_P1;SDS_P2;PMS_P1;PMS_P2;Temp;Humidity;BMP_temperature;BMP_pressure;BME280_temperature;BME280_humidity;BME280_pressure;Samples;Min_cycle;Max_cycle;Signal;HPM_P1;HPM_P2
2023/12/10 00:01:50;;;;;;;24.47;22.87;;;;;;;;;;5011885;28;20476;-41
2023/12/10 00:04:17;;;;;;;25.83;24.00;;;;;;;;;;5011327;28;20440;-43
2023/12/10 00:06:45;;;;;;;25.83;24.10;;;;;;;;;;5011455;28;20453;-41
2023/12/10 00:09:13;;;;;;;25.80;24.20;;;;;;;;;;5010857;28;20441;-44
2023/12/10 00:11:41;;;;;;;24.90;23.30;;;;;;;;;;5011245;28;20984;-38
2023/12/10 00:14:09;;;;;;;23.97;22.37;;;;;;;;;;5011441;28;20932;-41
2023/12/10 00:16:37;;;;;;;24.60;23.03;;;;;;;;;;5011235;28;21008;-39
2023/12/10 00:19:06;;;;;;;23.93;22.60;;;;;;;;;;5011099;28;20496;-42
2023/12/10 00:21:34;;;;;;;24.30;22.87;;;;;;;;;;5011606;28;20433;-40
2023/12/10 00:24:01;;;;;;;24.10;22.40;;;;;;;;;;5011133;28;20437;-41
2023/12/10 00:26:29;;;;;;;24.50;22.90;;;;;;;;;;5011157;28;20461;-42
2023/12/10 00:28:57;;;;;;;23.80;22.30;;;;;;;;;;5010936;28;20463;-40
2023/12/10 00:31:24;;;;;;;22.47;21.27;;;;;;;;;;5011422;28;20433;-39
2023/12/10 00:33:52;;;;;;;23.20;22.00;;;;;;;;;;5011351;28;20600;-39
2023/12/10 00:36:21;;;;;;;23.23;21.83;;;;;;;;;;5011509;28;20479;-40
2023/12/10 00:38:49;;;;;;;22.97;21.67;;;;;;;;;;5011231;28;20471;-43
2023/12/10 00:41:16;;;;;;;24.93;23.30;;;;;;;;;;5011544;28;20528;-41
2023/12/10 00:43:44;;;;;;;23.70;22.23;;;;;;;;;;5011964;28;20867;-41
2023/12/10 00:46:12;;;;;;;23.47;22.17;;;;;;;;;;5011648;28;20492;-43
2023/12/10 00:48:40;;;;;;;22.93;21.57;;;;;;;;;;5011148;28;20465;-41
2023/12/10 00:51:08;;;;;;;23.63;22.33;;;;;;;;;;5011391;28;20492;-39
2023/12/10 00:53:37;;;;;;;22.10;20.97;;;;;;;;;;5010265;28;20476;-40
2023/12/10 00:56:05;;;;;;;23.10;21.90;;;;;;;;;;5011131;28;20544;-39
2023/12/10 00:58:33;;;;;;;22.07;20.90;;;;;;;;;;5011036;28;20493;-41
2023/12/10 01:01:00;;;;;;;23.30;21.87;;;;;;;;;;5011235;28;20976;-38
2023/12/10 01:03:28;;;;;;;24.77;23.47;;;;;;;;;;5011340;28;20462;-43
2023/12/10 01:05:56;;;;;;;22.27;20.93;;;;;;;;;;5011103;28;20515;-40
2023/12/10 01:08:23;;;;;;;22.93;21.63;;;;;;;;;;5010626;28;21061;-40
2023/12/10 01:10:52;;;;;;;22.10;20.90;;;;;;;;;;5014423;28;20532;-40
2023/12/10 01:13:21;;;;;;;24.50;23.07;;;;;;;;;;5015331;28;20512;-40
2023/12/10 01:15:49;;;;;;;22.20;21.03;;;;;;;;;;5015417;28;20798;-44
2023/12/10 01:18:16;;;;;;;22.83;21.60;;;;;;;;;;5014594;28;20476;-38
2023/12/10 01:20:44;;;;;;;22.80;21.43;;;;;;;;;;5014782;28;20444;-39
2023/12/10 01:23:12;;;;;;;22.30;21.10;;;;;;;;;;5014853;28;20495;-39
2023/12/10 01:25:39;;;;;;;22.97;21.77;;;;;;;;;;5014621;28;20464;-38
2023/12/10 01:28:09;;;;;;;22.43;21.23;;;;;;;;;;5014526;28;20472;-39
2023/12/10 01:30:36;;;;;;;23.50;22.30;;;;;;;;;;5015043;28;20523;-38
2023/12/10 01:33:04;;;;;;;23.13;21.73;;;;;;;;;;5014787;28;20465;-38
2023/12/10 01:35:32;;;;;;;22.70;21.40;;;;;;;;;;5014186;28;20461;-38
2023/12/10 01:38:01;;;;;;;23.60;22.30;;;;;;;;;;5014216;28;20481;-41
2023/12/10 01:40:29;;;;;;;23.57;22.17;;;;;;;;;;5014282;28;20472;-40
2023/12/10 01:42:57;;;;;;;24.13;22.73;;;;;;;;;;5014950;28;20464;-41
2023/12/10 01:45:26;;;;;;;23.40;22.10;;;;;;;;;;5014330;28;20518;-40
2023/12/10 01:47:53;;;;;;;22.80;21.53;;;;;;;;;;5013862;28;20885;-43
2023/12/10 01:50:21;;;;;;;23.63;22.33;;;;;;;;;;5014380;28;20500;-43
2023/12/10 01:52:49;;;;;;;23.57;22.07;;;;;;;;;;5014755;28;20557;-40
2023/12/10 01:55:17;;;;;;;23.50;22.30;;;;;;;;;;5014218;28;20872;-40
2023/12/10 01:57:45;;;;;;;22.50;21.30;;;;;;;;;;5013769;28;20539;-39
2023/12/10 02:00:14;;;;;;;22.87;21.47;;;;;;;;;;5014028;28;20476;-41
2023/12/10 02:02:44;;;;;;;23.50;22.20;;;;;;;;;;5014408;28;20837;-38
2023/12/10 02:05:11;;;;;;;23.87;22.47;;;;;;;;;;5013945;28;20457;-40
2023/12/10 02:07:42;;;;;;;23.80;22.30;;;;;;;;;;5013864;28;20469;-38
2023/12/10 02:10:09;;;;;;;24.10;22.70;;;;;;;;;;5014045;28;20444;-42
2023/12/10 02:12:38;;;;;;;23.77;22.37;;;;;;;;;;5014266;28;20568;-38
2023/12/10 02:15:15;;;;;;;23.93;22.63;;;;;;;;;;5013849;28;20981;-38
2023/12/10 02:17:45;;;;;;;23.27;22.10;;;;;;;;;;5013613;28;20469;-39
2023/12/10 02:20:13;;;;;;;25.97;24.30;;;;;;;;;;5013798;28;20445;-40
2023/12/10 02:22:46;;;;;;;24.37;22.97;;;;;;;;;;5014089;28;20429;-40
2023/12/10 02:25:14;;;;;;;24.47;22.97;;;;;;;;;;5013843;28;20453;-39
2023/12/10 02:27:43;;;;;;;23.07;21.77;;;;;;;;;;5013633;28;20496;-40
2023/12/10 02:30:11;;;;;;;23.63;22.33;;;;;;;;;;5013709;28;20440;-39
2023/12/10 02:32:39;;;;;;;22.73;21.60;;;;;;;;;;5013873;28;20548;-39
2023/12/10 02:35:07;;;;;;;22.37;21.00;;;;;;;;;;5013812;28;20487;-38
2023/12/10 02:37:35;;;;;;;21.50;20.40;;;;;;;;;;5013386;28;21005;-38
2023/12/10 02:40:03;;;;;;;21.23;20.23;;;;;;;;;;5013901;28;20440;-40
2023/12/10 02:42:31;;;;;;;21.90;20.27;;;;;;;;;;5013701;28;20468;-38
2023/12/10 02:45:00;;;;;;;21.90;20.70;;;;;;;;;;5013552;28;20434;-38
2023/12/10 02:47:28;;;;;;;20.83;19.73;;;;;;;;;;5013296;28;20480;-39
2023/12/10 02:49:56;;;;;;;21.60;20.37;;;;;;;;;;5013951;28;20444;-38
2023/12/10 02:52:23;;;;;;;19.97;18.70;;;;;;;;;;5013421;28;20480;-38
2023/12/10 02:54:51;;;;;;;19.70;18.80;;;;;;;;;;5013140;28;20477;-40
2023/12/10 02:57:18;;;;;;;19.27;18.33;;;;;;;;;;5012501;28;20583;-39
2023/12/10 02:59:46;;;;;;;18.47;17.67;;;;;;;;;;5012585;28;20437;-39
2023/12/10 03:02:15;;;;;;;20.20;19.00;;;;;;;;;;5011564;28;20437;-39
2023/12/10 03:04:42;;;;;;;19.90;18.80;;;;;;;;;;5012297;28;20429;-39
2023/12/10 03:07:10;;;;;;;20.13;19.03;;;;;;;;;;5011579;28;20484;-42
2023/12/10 03:09:38;;;;;;;20.83;19.63;;;;;;;;;;5012990;28;20805;-39
2023/12/10 03:12:06;;;;;;;20.60;19.50;;;;;;;;;;5012155;28;20948;-39
2023/12/10 03:14:34;;;;;;;21.23;19.90;;;;;;;;;;5011789;28;20560;-39
2023/12/10 03:17:01;;;;;;;18.90;18.00;;;;;;;;;;5011470;28;20449;-41
2023/12/10 03:19:30;;;;;;;21.93;20.73;;;;;;;;;;5012174;28;20828;-39
2023/12/10 03:21:58;;;;;;;21.33;19.93;;;;;;;;;;5012142;28;20434;-40
2023/12/10 03:24:25;;;;;;;21.10;19.93;;;;;;;;;;5012231;28;20443;-40
2023/12/10 03:26:53;;;;;;;22.53;21.30;;;;;;;;;;5011936;28;20798;-42
2023/12/10 03:29:21;;;;;;;21.03;19.93;;;;;;;;;;5012187;28;20441;-39
2023/12/10 03:31:48;;;;;;;20.97;19.67;;;;;;;;;;5011600;28;20433;-42
2023/12/10 03:34:16;;;;;;;21.93;20.80;;;;;;;;;;5011383;28;20495;-40
2023/12/10 03:36:45;;;;;;;20.50;19.40;;;;;;;;;;5011319;28;20599;-42
2023/12/10 03:39:13;;;;;;;21.37;20.17;;;;;;;;;;5012180;28;20438;-41
2023/12/10 03:41:40;;;;;;;22.07;20.87;;;;;;;;;;5011673;28;20472;-39
2023/12/10 03:44:08;;;;;;;22.37;21.03;;;;;;;;;;5011681;28;20437;-39
2023/12/10 03:46:36;;;;;;;22.67;21.17;;;;;;;;;;5011680;28;20493;-44
2023/12/10 03:49:04;;;;;;;22.47;21.07;;;;;;;;;;5010968;28;20469;-40
2023/12/10 03:51:31;;;;;;;22.30;21.00;;;;;;;;;;5011067;28;20448;-39
2023/12/10 03:54:00;;;;;;;22.80;21.20;;;;;;;;;;5011228;28;21048;-42
2023/12/10 03:56:28;;;;;;;23.50;21.73;;;;;;;;;;5011254;28;20978;-39
2023/12/10 03:58:56;;;;;;;23.80;22.37;;;;;;;;;;5011254;28;20500;-44
2023/12/10 04:01:23;;;;;;;24.00;22.30;;;;;;;;;;5011342;28;20956;-41
2023/12/10 04:03:51;;;;;;;24.17;22.33;;;;;;;;;;5011755;28;20433;-42
2023/12/10 04:06:19;;;;;;;25.30;23.60;;;;;;;;;;5011737;28;20461;-41
2023/12/10 04:08:47;;;;;;;24.33;22.73;;;;;;;;;;5010954;28;20457;-42
2023/12/10 04:11:22;;;;;;;24.27;22.23;;;;;;;;;;5011580;28;20437;-40
2023/12/10 04:13:50;;;;;;;25.50;23.57;;;;;;;;;;5011073;28;20496;-44
2023/12/10 04:16:24;;;;;;;25.67;23.10;;;;;;;;;;5011018;28;20499;-39
2023/12/10 04:18:52;;;;;;;25.93;24.33;;;;;;;;;;5011095;28;20895;-40
2023/12/10 04:21:20;;;;;;;24.57;22.37;;;;;;;;;;5011478;28;20441;-44
2023/12/10 04:23:48;;;;;;;25.07;23.27;;;;;;;;;;5010597;28;20440;-39
2023/12/10 04:26:16;;;;;;;24.83;23.03;;;;;;;;;;5011022;28;20465;-39
2023/12/10 04:28:45;;;;;;;26.07;23.77;;;;;;;;;;5010601;28;20464;-42
2023/12/10 04:31:13;;;;;;;26.00;23.80;;;;;;;;;;5011059;28;20524;-40
2023/12/10 04:33:41;;;;;;;25.77;23.53;;;;;;;;;;5002787;28;20435;-42
2023/12/10 04:36:09;;;;;;;25.03;23.00;;;;;;;;;;5010665;28;20457;-41
2023/12/10 04:38:37;;;;;;;26.17;24.00;;;;;;;;;;5010462;28;20492;-44
2023/12/10 04:41:05;;;;;;;25.47;23.53;;;;;;;;;;5010875;28;20461;-40
2023/12/10 04:43:33;;;;;;;27.10;25.07;;;;;;;;;;5010702;28;20441;-39
2023/12/10 04:46:02;;;;;;;27.97;25.67;;;;;;;;;;5010809;28;20461;-40
2023/12/10 04:48:29;;;;;;;26.80;24.27;;;;;;;;;;5010194;28;20467;-41
2023/12/10 04:50:57;;;;;;;26.67;24.67;;;;;;;;;;5011091;28;20844;-40
2023/12/10 04:53:25;;;;;;;26.43;23.90;;;;;;;;;;5010692;28;20491;-41
2023/12/10 04:55:52;;;;;;;28.00;25.90;;;;;;;;;;5010777;28;20483;-42
2023/12/10 04:58:20;;;;;;;25.60;23.70;;;;;;;;;;5010371;28;20523;-43
2023/12/10 05:00:48;;;;;;;25.40;23.47;;;;;;;;;;5010513;28;20441;-39
2023/12/10 05:03:17;;;;;;;26.60;24.50;;;;;;;;;;5011032;28;20432;-39
2023/12/10 05:05:45;;;;;;;27.73;25.53;;;;;;;;;;5010917;28;20539;-39
2023/12/10 05:08:13;;;;;;;25.63;23.93;;;;;;;;;;5009600;28;20527;-39
2023/12/10 05:10:40;;;;;;;26.73;24.73;;;;;;;;;;5002916;28;20469;-39
2023/12/10 05:13:08;;;;;;;29.10;26.40;;;;;;;;;;5010845;28;20463;-39
2023/12/10 05:15:36;;;;;;;28.03;25.60;;;;;;;;;;5010306;28;20485;-40
2023/12/10 05:18:04;;;;;;;28.07;25.57;;;;;;;;;;5009654;28;20886;-39
2023/12/10 05:20:34;;;;;;;27.57;25.47;;;;;;;;;;5010400;28;20433;-41
2023/12/10 05:23:01;;;;;;;27.67;25.20;;;;;;;;;;5011244;28;20464;-38
2023/12/10 05:25:30;;;;;;;28.93;26.50;;;;;;;;;;5010353;28;20957;-39
2023/12/10 05:27:58;;;;;;;29.23;26.47;;;;;;;;;;5009441;28;20464;-38
2023/12/10 05:30:26;;;;;;;30.33;27.33;;;;;;;;;;5010542;28;20437;-38
2023/12/10 05:32:53;;;;;;;29.30;26.40;;;;;;;;;;5010550;28;20803;-42
2023/12/10 05:35:21;;;;;;;27.77;25.67;;;;;;;;;;5010137;28;20542;-39
2023/12/10 05:37:50;;;;;;;29.20;26.70;;;;;;;;;;5009299;28;20896;-39
2023/12/10 05:40:18;;;;;;;31.90;28.67;;;;;;;;;;5010460;28;20475;-39
2023/12/10 05:42:46;;;;;;;34.57;29.03;;;;;;;;;;5010550;28;20441;-39
2023/12/10 05:45:13;;;;;;;30.53;27.90;;;;;;;;;;5010379;28;20580;-39
2023/12/10 05:47:41;;;;;;;30.03;27.43;;;;;;;;;;5009237;28;20888;-39
2023/12/10 05:50:10;;;;;;;31.17;28.70;;;;;;;;;;5010606;28;20454;-41
2023/12/10 05:52:37;;;;;;;32.77;29.50;;;;;;;;;;5010298;28;20433;-39
2023/12/10 05:55:07;;;;;;;30.70;27.93;;;;;;;;;;5010351;28;20476;-38
2023/12/10 05:57:35;;;;;;;31.87;29.00;;;;;;;;;;5013645;28;20903;-39
2023/12/10 06:00:03;;;;;;;30.37;27.90;;;;;;;;;;5013675;28;20433;-39
2023/12/10 06:02:31;;;;;;;31.40;28.10;;;;;;;;;;5013804;28;20439;-40
2023/12/10 06:04:59;;;;;;;30.50;28.00;;;;;;;;;;5013481;28;20468;-39
2023/12/10 06:07:27;;;;;;;30.20;27.60;;;;;;;;;;5012953;28;20461;-39
2023/12/10 06:09:54;;;;;;;34.40;28.93;;;;;;;;;;5013593;28;20522;-43
2023/12/10 06:12:24;;;;;;;30.23;27.13;;;;;;;;;;5013532;28;20480;-39
2023/12/10 06:14:51;;;;;;;29.53;26.73;;;;;;;;;;5013121;28;20831;-38
2023/12/10 06:17:19;;;;;;;33.10;28.17;;;;;;;;;;5013266;28;20809;-38
2023/12/10 06:19:47;;;;;;;30.47;27.43;;;;;;;;;;5013818;28;20443;-39
2023/12/10 06:22:14;;;;;;;30.67;27.60;;;;;;;;;;5013728;28;20439;-40
2023/12/10 06:24:42;;;;;;;30.70;27.87;;;;;;;;;;5013458;28;20437;-39
2023/12/10 06:27:09;;;;;;;30.30;27.10;;;;;;;;;;5012832;28;20834;-39
2023/12/10 06:29:39;;;;;;;28.67;25.90;;;;;;;;;;5013259;28;20619;-39
2023/12/10 06:32:07;;;;;;;28.77;25.97;;;;;;;;;;5013024;28;20440;-41
2023/12/10 06:34:35;;;;;;;30.73;27.57;;;;;;;;;;5013224;28;20433;-39
2023/12/10 06:37:02;;;;;;;30.77;27.57;;;;;;;;;;5012809;28;20454;-40
2023/12/10 06:39:30;;;;;;;30.50;27.10;;;;;;;;;;5013239;28;20440;-38
2023/12/10 06:41:58;;;;;;;30.33;26.80;;;;;;;;;;5012646;28;20559;-39
2023/12/10 06:44:26;;;;;;;33.50;29.30;;;;;;;;;;5012515;28;20433;-39
2023/12/10 06:46:56;;;;;;;31.63;27.90;;;;;;;;;;5009907;28;20889;-39
2023/12/10 06:49:23;;;;;;;32.30;29.10;;;;;;;;;;5011006;28;20492;-38
2023/12/10 06:51:51;;;;;;;31.13;27.63;;;;;;;;;;5011311;28;20442;-41
2023/12/10 06:54:19;;;;;;;30.00;26.77;;;;;;;;;;5012462;28;20930;-39
2023/12/10 06:56:47;;;;;;;31.13;28.03;;;;;;;;;;5011787;28;20476;-40
2023/12/10 06:59:14;;;;;;;31.67;27.67;;;;;;;;;;5012935;28;20437;-40
2023/12/10 07:01:42;;;;;;;32.70;26.07;;;;;;;;;;5010967;28;20456;-39
2023/12/10 07:04:11;;;;;;;30.93;27.73;;;;;;;;;;5010229;28;20809;-39
2023/12/10 07:06:39;;;;;;;28.60;26.13;;;;;;;;;;5010064;28;20817;-39
2023/12/10 07:09:07;;;;;;;29.57;26.53;;;;;;;;;;5010103;28;20518;-41
2023/12/10 07:11:35;;;;;;;30.87;23.53;;;;;;;;;;5011805;28;20491;-39
2023/12/10 07:14:03;;;;;;;29.50;23.07;;;;;;;;;;5011384;28;20932;-39
2023/12/10 07:16:31;;;;;;;29.20;23.60;;;;;;;;;;5012225;28;20480;-39
2023/12/10 07:18:58;;;;;;;34.43;23.90;;;;;;;;;;5011656;28;20527;-39
2023/12/10 07:21:28;;;;;;;37.10;26.30;;;;;;;;;;5011832;28;20528;-43
2023/12/10 07:23:55;;;;;;;36.90;27.20;;;;;;;;;;5007536;28;20433;-39
2023/12/10 07:26:23;;;;;;;31.33;24.53;;;;;;;;;;5010481;28;20453;-39
2023/12/10 07:28:52;;;;;;;31.07;23.13;;;;;;;;;;4985265;28;20489;-39
2023/12/10 07:31:20;;;;;;;35.47;21.47;;;;;;;;;;4990497;28;20446;-39
2023/12/10 07:33:47;;;;;;;31.10;20.40;;;;;;;;;;4990502;28;20481;-43
2023/12/10 07:36:15;;;;;;;33.47;20.70;;;;;;;;;;4992007;28;20481;-41
2023/12/10 07:38:44;;;;;;;27.30;20.60;;;;;;;;;;4991285;28;20469;-38
2023/12/10 07:41:13;;;;;;;24.97;20.57;;;;;;;;;;4991981;28;20942;-41
2023/12/10 07:43:40;;;;;;;25.47;21.47;;;;;;;;;;4990965;28;20807;-39
2023/12/10 07:46:08;;;;;;;31.27;21.33;;;;;;;;;;4990851;28;20457;-40
2023/12/10 07:48:36;;;;;;;29.83;21.60;;;;;;;;;;4990354;28;20866;-40
2023/12/10 07:51:03;;;;;;;25.13;21.13;;;;;;;;;;4990111;28;20438;-41
2023/12/10 07:53:31;;;;;;;29.83;21.63;;;;;;;;;;4991409;28;20969;-41
2023/12/10 07:56:00;;;;;;;31.77;21.00;;;;;;;;;;4990667;28;21641;-39
2023/12/10 07:58:28;;;;;;;32.73;21.60;;;;;;;;;;4990329;28;20723;-39
2023/12/10 08:00:56;;;;;;;27.90;21.57;;;;;;;;;;4990162;28;20482;-40
2023/12/10 08:03:24;;;;;;;27.83;20.50;;;;;;;;;;4990784;28;20445;-38
2023/12/10 08:05:51;;;;;;;25.60;20.60;;;;;;;;;;4990186;28;20490;-40
2023/12/10 08:08:19;;;;;;;31.70;20.90;;;;;;;;;;4990958;28;20956;-41
2023/12/10 08:10:47;;;;;;;32.10;21.53;;;;;;;;;;4991416;28;20782;-38
2023/12/10 08:13:16;;;;;;;30.83;21.13;;;;;;;;;;4991565;28;20438;-40
2023/12/10 08:15:43;;;;;;;28.10;20.40;;;;;;;;;;4991165;28;20973;-41
2023/12/10 08:18:11;;;;;;;24.77;21.93;;;;;;;;;;4990288;28;20493;-39
2023/12/10 08:20:39;;;;;;;28.03;21.17;;;;;;;;;;4991889;28;20438;-40
2023/12/10 08:23:07;;;;;;;28.30;20.77;;;;;;;;;;4992610;28;20481;-38
2023/12/10 08:25:34;;;;;;;34.83;22.17;;;;;;;;;;4992122;28;20458;-40
2023/12/10 08:28:02;;;;;;;28.87;21.57;;;;;;;;;;4991712;28;20501;-37
2023/12/10 08:30:31;;;;;;;28.93;21.43;;;;;;;;;;4992397;28;20438;-39
2023/12/10 08:32:59;;;;;;;26.87;22.63;;;;;;;;;;4992549;28;20869;-40
2023/12/10 08:35:27;;;;;;;24.00;21.70;;;;;;;;;;4992001;28;20822;-39
2023/12/10 08:37:54;;;;;;;27.67;23.13;;;;;;;;;;4991912;28;20472;-38
2023/12/10 08:40:22;;;;;;;25.43;22.70;;;;;;;;;;4992111;28;20434;-39
2023/12/10 08:42:50;;;;;;;35.43;23.80;;;;;;;;;;4992092;28;21304;-40
2023/12/10 08:45:18;;;;;;;32.57;22.93;;;;;;;;;;4992021;28;21032;-40
2023/12/10 08:47:47;;;;;;;23.10;20.53;;;;;;;;;;4991661;28;20561;-38
2023/12/10 08:50:15;;;;;;;23.97;21.43;;;;;;;;;;4988433;28;20469;-38
2023/12/10 08:52:43;;;;;;;26.03;22.23;;;;;;;;;;4992008;28;20930;-42
2023/12/10 08:55:10;;;;;;;26.63;21.80;;;;;;;;;;4991344;28;20949;-38
2023/12/10 08:57:38;;;;;;;35.07;22.50;;;;;;;;;;4999389;28;20856;-40
2023/12/10 09:00:06;;;;;;;26.07;20.43;;;;;;;;;;5011817;28;20869;-40
2023/12/10 09:02:34;;;;;;;31.40;20.80;;;;;;;;;;5010553;28;20956;-38
2023/12/10 09:05:03;;;;;;;24.10;21.90;;;;;;;;;;5008802;28;20517;-39
2023/12/10 09:07:31;;;;;;;29.20;21.30;;;;;;;;;;5002676;28;20461;-39
2023/12/10 09:09:59;;;;;;;24.03;21.67;;;;;;;;;;4989976;28;20465;-40
2023/12/10 09:12:38;;;;;;;27.47;22.93;;;;;;;;;;4990365;28;20430;-40
2023/12/10 09:15:08;;;;;;;31.40;22.77;;;;;;;;;;4990284;28;20442;-39
2023/12/10 09:17:35;;;;;;;26.83;21.57;;;;;;;;;;4997344;28;20461;-40
2023/12/10 09:20:05;;;;;;;24.57;20.90;;;;;;;;;;5008921;28;20802;-40
2023/12/10 09:22:32;;;;;;;30.57;22.13;;;;;;;;;;5009237;28;20441;-39
2023/12/10 09:25:00;;;;;;;32.20;20.70;;;;;;;;;;5010059;28;20472;-45
2023/12/10 09:27:28;;;;;;;23.93;21.43;;;;;;;;;;5002651;28;20470;-40
2023/12/10 09:29:56;;;;;;;28.63;21.30;;;;;;;;;;4990585;28;20441;-40
2023/12/10 09:32:27;;;;;;;24.27;21.00;;;;;;;;;;4993961;28;20445;-40
2023/12/10 09:34:55;;;;;;;22.67;20.27;;;;;;;;;;4994201;28;20470;-42
2023/12/10 09:37:24;;;;;;;24.70;22.13;;;;;;;;;;4999502;28;20542;-39
2023/12/10 09:39:51;;;;;;;22.57;20.40;;;;;;;;;;5012917;28;20528;-38
2023/12/10 09:42:19;;;;;;;22.63;20.30;;;;;;;;;;5013495;28;20437;-40
2023/12/10 09:44:47;;;;;;;22.63;20.53;;;;;;;;;;5013637;28;20443;-41
2023/12/10 09:47:16;;;;;;;22.80;20.63;;;;;;;;;;5007969;28;21022;-38
2023/12/10 09:49:45;;;;;;;21.10;19.60;;;;;;;;;;4992710;28;20472;-41
2023/12/10 09:52:13;;;;;;;21.10;19.30;;;;;;;;;;4991626;28;20496;-38
2023/12/10 09:54:42;;;;;;;22.20;20.03;;;;;;;;;;4993186;28;20449;-40
2023/12/10 09:57:11;;;;;;;20.70;19.30;;;;;;;;;;4995881;28;20472;-39
2023/12/10 09:59:39;;;;;;;21.57;19.77;;;;;;;;;;5011864;28;20445;-43
2023/12/10 10:02:10;;;;;;;23.47;21.10;;;;;;;;;;5012593;28;20553;-39
2023/12/10 10:04:39;;;;;;;21.90;20.03;;;;;;;;;;5013360;28;20444;-39
2023/12/10 10:07:07;;;;;;;23.13;21.00;;;;;;;;;;5008274;28;20465;-42
2023/12/10 10:09:35;;;;;;;22.50;20.63;;;;;;;;;;4992901;28;20437;-42
2023/12/10 10:12:07;;;;;;;23.00;21.30;;;;;;;;;;4992222;28;20441;-42
2023/12/10 10:14:35;;;;;;;25.17;22.70;;;;;;;;;;4992972;28;20434;-42
2023/12/10 10:17:04;;;;;;;23.33;21.37;;;;;;;;;;4995393;28;20519;-40
2023/12/10 10:19:31;;;;;;;23.07;21.23;;;;;;;;;;5012591;28;20479;-39
2023/12/10 10:21:59;;;;;;;23.00;20.93;;;;;;;;;;5011819;28;20484;-41
2023/12/10 10:24:27;;;;;;;25.13;22.37;;;;;;;;;;5012688;28;20476;-39
2023/12/10 10:26:55;;;;;;;24.70;22.60;;;;;;;;;;5008969;28;20460;-41
2023/12/10 10:29:25;;;;;;;25.60;23.10;;;;;;;;;;4992264;28;20470;-40
2023/12/10 10:31:55;;;;;;;24.53;21.70;;;;;;;;;;4992139;28;20905;-39
2023/12/10 10:34:23;;;;;;;24.40;22.33;;;;;;;;;;4992182;28;20829;-40
2023/12/10 10:36:51;;;;;;;26.47;24.33;;;;;;;;;;4989773;28;20535;-39
2023/12/10 10:39:19;;;;;;;26.07;23.73;;;;;;;;;;5011379;28;20852;-41
2023/12/10 10:41:49;;;;;;;27.07;24.67;;;;;;;;;;5010730;28;20465;-42
2023/12/10 10:44:17;;;;;;;24.37;22.33;;;;;;;;;;5011837;28;20433;-40
2023/12/10 10:46:46;;;;;;;24.67;22.70;;;;;;;;;;5010480;28;20457;-41
2023/12/10 10:49:15;;;;;;;24.90;22.53;;;;;;;;;;4992541;28;20852;-39
2023/12/10 10:51:43;;;;;;;27.03;24.33;;;;;;;;;;4990782;28;20449;-38
2023/12/10 10:54:12;;;;;;;26.90;24.10;;;;;;;;;;4991272;28;20443;-42
2023/12/10 10:56:39;;;;;;;25.40;23.37;;;;;;;;;;4991273;28;20501;-41
2023/12/10 10:59:22;;;;;;;26.00;23.73;;;;;;;;;;5011094;28;20477;-39
2023/12/10 11:01:51;;;;;;;26.53;24.00;;;;;;;;;;5010903;28;20683;-39
2023/12/10 11:04:19;;;;;;;26.10;23.30;;;;;;;;;;5011936;28;20483;-40
2023/12/10 11:06:47;;;;;;;26.70;24.00;;;;;;;;;;5010097;28;20539;-40
2023/12/10 11:09:16;;;;;;;26.77;23.93;;;;;;;;;;4992015;28;20856;-39
2023/12/10 11:11:44;;;;;;;26.23;24.10;;;;;;;;;;4990473;28;20442;-40
2023/12/10 11:14:22;;;;;;;22.80;21.20;;;;;;;;;;4990964;28;20430;-41
2023/12/10 11:16:54;;;;;;;23.43;21.70;;;;;;;;;;4991666;28;20458;-39
2023/12/10 11:19:22;;;;;;;25.97;23.47;;;;;;;;;;5011172;28;20574;-39
2023/12/10 11:21:50;;;;;;;27.90;24.20;;;;;;;;;;5009573;28;20440;-39
2023/12/10 11:24:18;;;;;;;26.80;23.07;;;;;;;;;;5011519;28;20476;-39
2023/12/10 11:26:46;;;;;;;26.80;23.37;;;;;;;;;;5009143;28;20457;-39
2023/12/10 11:29:14;;;;;;;26.87;24.37;;;;;;;;;;4991686;28;20453;-38
2023/12/10 11:31:43;;;;;;;26.60;24.40;;;;;;;;;;4989698;28;20517;-41
2023/12/10 11:34:12;;;;;;;26.27;24.37;;;;;;;;;;4991170;28;20563;-39
2023/12/10 11:36:45;;;;;;;27.00;24.80;;;;;;;;;;4991809;28;21018;-40
2023/12/10 11:39:14;;;;;;;28.53;25.53;;;;;;;;;;4990941;28;20490;-39
2023/12/10 11:41:43;;;;;;;26.27;23.80;;;;;;;;;;4989888;28;20529;-40
2023/12/10 11:44:26;;;;;;;28.37;25.40;;;;;;;;;;4991399;28;20949;-39
2023/12/10 11:46:53;;;;;;;27.30;24.50;;;;;;;;;;4992765;28;20497;-39
2023/12/10 11:49:26;;;;;;;25.20;22.90;;;;;;;;;;5010802;28;20440;-39
2023/12/10 11:51:54;;;;;;;25.57;23.30;;;;;;;;;;5009736;28;20432;-39
2023/12/10 11:54:22;;;;;;;29.43;26.73;;;;;;;;;;5010283;28;20444;-39
2023/12/10 11:56:50;;;;;;;29.07;25.90;;;;;;;;;;5007742;28;20504;-39
2023/12/10 11:59:17;;;;;;;27.10;24.30;;;;;;;;;;4987183;28;20474;-40
2023/12/10 12:01:46;;;;;;;29.33;26.10;;;;;;;;;;4989596;28;20455;-39
2023/12/10 12:04:13;;;;;;;29.07;26.50;;;;;;;;;;4990870;28;20442;-39
2023/12/10 12:06:43;;;;;;;25.37;23.43;;;;;;;;;;4991401;28;20450;-39
2023/12/10 12:09:14;;;;;;;24.53;22.00;;;;;;;;;;5009952;28;20803;-39
2023/12/10 12:11:42;;;;;;;21.17;19.73;;;;;;;;;;5010209;28;20991;-42
2023/12/10 12:14:14;;;;;;;27.00;23.07;;;;;;;;;;5010365;28;21039;-39
2023/12/10 12:16:41;;;;;;;32.37;25.00;;;;;;;;;;5007407;28;20492;-39
2023/12/10 12:19:09;;;;;;;25.33;21.73;;;;;;;;;;4989104;28;20509;-39
2023/12/10 12:21:37;;;;;;;22.47;20.70;;;;;;;;;;4988496;28;20450;-41
2023/12/10 12:24:06;;;;;;;22.50;20.80;;;;;;;;;;4990370;28;20442;-39
2023/12/10 12:26:34;;;;;;;22.63;20.87;;;;;;;;;;4990697;28;20870;-39
2023/12/10 12:29:02;;;;;;;27.97;25.50;;;;;;;;;;5008910;28;20456;-39
2023/12/10 12:31:30;;;;;;;30.30;25.53;;;;;;;;;;5009454;28;21016;-39
2023/12/10 12:33:58;;;;;;;35.80;30.10;;;;;;;;;;5009370;28;20476;-40
2023/12/10 12:36:26;;;;;;;23.13;20.90;;;;;;;;;;5009330;28;20500;-39
2023/12/10 12:38:53;;;;;;;25.50;22.90;;;;;;;;;;4990807;28;20564;-39
2023/12/10 12:41:23;;;;;;;26.80;24.60;;;;;;;;;;4989029;28;20478;-39
2023/12/10 12:43:50;;;;;;;23.37;21.27;;;;;;;;;;4990341;28;20465;-39
2023/12/10 12:46:18;;;;;;;97.57;31.50;;;;;;;;;;4988785;28;20458;-40
2023/12/10 12:48:46;;;;;;;55.70;24.80;;;;;;;;;;5005141;28;20457;-39
2023/12/10 12:51:14;;;;;;;182.30;45.90;;;;;;;;;;5009608;28;20441;-43
2023/12/10 12:53:42;;;;;;;125.33;36.47;;;;;;;;;;5010083;28;20440;-42
2023/12/10 12:56:31;;;;;;;79.37;30.80;;;;;;;;;;5009884;28;20468;-39
2023/12/10 12:58:58;;;;;;;66.13;20.70;;;;;;;;;;4991105;28;20573;-39
2023/12/10 13:01:26;;;;;;;61.57;22.97;;;;;;;;;;4990298;28;20437;-39
2023/12/10 13:03:54;;;;;;;98.20;27.47;;;;;;;;;;4990831;28;20444;-39
2023/12/10 13:06:22;;;;;;;105.23;35.10;;;;;;;;;;4994202;28;20520;-41
2023/12/10 13:08:50;;;;;;;131.97;30.73;;;;;;;;;;5011102;28;20837;-39
2023/12/10 13:11:17;;;;;;;36.87;22.50;;;;;;;;;;5013455;28;20887;-40
2023/12/10 13:13:46;;;;;;;48.23;24.13;;;;;;;;;;5014968;28;20848;-39
2023/12/10 13:16:14;;;;;;;26.40;23.20;;;;;;;;;;5013432;28;20519;-39
2023/12/10 13:18:42;;;;;;;25.77;23.10;;;;;;;;;;4996626;28;20585;-40
2023/12/10 13:21:10;;;;;;;24.27;22.07;;;;;;;;;;4993527;28;20937;-39
2023/12/10 13:23:37;;;;;;;23.63;21.73;;;;;;;;;;4993908;28;20528;-39
2023/12/10 13:26:05;;;;;;;28.77;26.13;;;;;;;;;;4993336;28;20462;-39
2023/12/10 13:28:33;;;;;;;22.43;20.73;;;;;;;;;;5008529;28;20511;-40
2023/12/10 13:31:02;;;;;;;22.37;20.87;;;;;;;;;;5012983;28;20439;-39
2023/12/10 13:33:29;;;;;;;23.97;22.27;;;;;;;;;;5013470;28;20864;-40
2023/12/10 13:35:57;;;;;;;22.80;21.00;;;;;;;;;;5012934;28;20461;-39
2023/12/10 13:38:25;;;;;;;24.87;22.50;;;;;;;;;;4998600;28;20568;-39
2023/12/10 13:40:53;;;;;;;25.00;22.10;;;;;;;;;;4993695;28;20473;-40
2023/12/10 13:43:20;;;;;;;24.53;22.07;;;;;;;;;;4993781;28;20442;-39
2023/12/10 13:45:48;;;;;;;22.23;20.83;;;;;;;;;;4994062;28;20536;-39
2023/12/10 13:48:17;;;;;;;21.50;20.10;;;;;;;;;;5005572;28;20476;-42
2023/12/10 13:50:45;;;;;;;21.60;20.30;;;;;;;;;;5012222;28;20801;-39
2023/12/10 13:53:12;;;;;;;21.83;20.50;;;;;;;;;;5012933;28;20437;-39
2023/12/10 13:55:40;;;;;;;25.30;23.33;;;;;;;;;;5013311;28;20475;-42
2023/12/10 13:58:07;;;;;;;26.30;24.10;;;;;;;;;;5000365;28;20492;-44
2023/12/10 14:00:35;;;;;;;27.63;25.63;;;;;;;;;;4992851;28;20509;-39
2023/12/10 14:03:03;;;;;;;26.73;24.00;;;;;;;;;;4994162;28;20441;-39
2023/12/10 14:05:33;;;;;;;21.47;20.27;;;;;;;;;;4993576;28;20798;-39
2023/12/10 14:08:01;;;;;;;23.13;21.70;;;;;;;;;;5003864;28;20536;-43
2023/12/10 14:10:28;;;;;;;20.80;19.50;;;;;;;;;;5011856;28;20465;-41
2023/12/10 14:12:56;;;;;;;22.30;19.33;;;;;;;;;;5013904;28;20448;-41
2023/12/10 14:15:24;;;;;;;20.97;19.33;;;;;;;;;;5012947;28;20476;-39
2023/12/10 14:17:51;;;;;;;21.83;19.97;;;;;;;;;;5002522;28;20504;-40
2023/12/10 14:20:19;;;;;;;28.27;24.57;;;;;;;;;;4992883;28;20477;-40
2023/12/10 14:22:48;;;;;;;20.87;19.73;;;;;;;;;;4994166;28;20438;-39